sensor_id;sensor_type;location;lat;lon;timestamp;P1;durP1;ratioP1;P2;durP2;ratioP2
41309;SDS011;27057;51.438;-0.010;2023-05-10T00:01:21;7.60;;;4.07;;
41309;SDS011;27057;51.438;-0.010;2023-05-10T00:03:49;7.05;;;3.15;;
41309;SDS011;27057;51.438;-0.010;2023-05-10T00:06:16;9.38;;;4.07;;
41309;SDS011;27057;51.438;-0.010;2023-05-10T00:09:06;6.97;;;4.22;;
41309;SDS011;27057;51.438;-0.010;2023-05-10T00:11:33;6.63;;;3.22;;
41309;SDS011;27057;51.438;-0.010;2023-05-10T00:14:04;8.50;;;3.95;;
41309;SDS011;27057;51.438;-0.010;2023-05-10T00:16:31;9.88;;;4.68;;
41309;SDS011;27057;51.438;-0.010;2023-05-10T00:19:19;8.32;;;4.35;;
41309;SDS011;27057;51.438;-0.010;2023-05-10T00:21:47;9.00;;;4.38;;
41309;SDS011;27057;51.438;-0.010;2023-05-10T00:24:16;9.98;;;4.00;;
41309;SDS011;27057;51.438;-0.010;2023-05-10T00:26:50;8.95;;;4.35;;
41309;SDS011;27057;51.438;-0.010;2023-05-10T00:29:18;9.15;;;4.10;;
41309;SDS011;27057;51.438;-0.010;2023-05-10T00:31:47;12.45;;;4.45;;
41309;SDS011;27057;51.438;-0.010;2023-05-10T00:34:15;9.07;;;4.63;;
41309;SDS011;27057;51.438;-0.010;2023-05-10T00:36:44;21.88;;;5.38;;
41309;SDS011;27057;51.438;-0.010;2023-05-10T00:39:14;9.38;;;4.57;;
41309;SDS011;27057;51.438;-0.010;2023-05-10T00:41:42;13.38;;;4.60;;
41309;SDS011;27057;51.438;-0.010;2023-05-10T00:44:10;17.63;;;5.97;;
41309;SDS011;27057;51.438;-0.010;2023-05-10T00:46:38;14.43;;;5.82;;
41309;SDS011;27057;51.438;-0.010;2023-05-10T00:49:05;10.63;;;5.20;;
41309;SDS011;27057;51.438;-0.010;2023-05-10T00:51:36;12.38;;;5.30;;
41309;SDS011;27057;51.438;-0.010;2023-05-10T00:54:04;19.23;;;5.22;;
41309;SDS011;27057;51.438;-0.010;2023-05-10T00:56:32;12.70;;;5.05;;
41309;SDS011;27057;51.438;-0.010;2023-05-10T00:59:00;11.25;;;5.28;;
41309;SDS011;27057;51.438;-0.010;2023-05-10T01:01:40;13.20;;;5.05;;
41309;SDS011;27057;51.438;-0.010;2023-05-10T01:04:08;10.65;;;5.97;;
41309;SDS011;27057;51.438;-0.010;2023-05-10T01:06:45;20.10;;;6.25;;
41309;SDS011;27057;51.438;-0.010;2023-05-10T01:09:12;18.77;;;6.30;;
41309;SDS011;27057;51.438;-0.010;2023-05-10T01:11:40;12.02;;;5.57;;
41309;SDS011;27057;51.438;-0.010;2023-05-10T01:14:22;15.43;;;6.10;;
41309;SDS011;27057;51.438;-0.010;2023-05-10T01:16:51;15.75;;;6.65;;
41309;SDS011;27057;51.438;-0.010;2023-05-10T01:19:24;11.25;;;6.20;;
41309;SDS011;27057;51.438;-0.010;2023-05-10T01:25:21;16.20;;;7.53;;
41309;SDS011;27057;51.438;-0.010;2023-05-10T01:28:13;15.20;;;6.70;;
41309;SDS011;27057;51.438;-0.010;2023-05-10T01:34:06;19.15;;;8.57;;
41309;SDS011;27057;51.438;-0.010;2023-05-10T01:36:31;18.55;;;7.53;;
41309;SDS011;27057;51.438;-0.010;2023-05-10T01:43:17;13.77;;;6.25;;
41309;SDS011;27057;51.438;-0.010;2023-05-10T01:49:30;20.15;;;7.20;;
41309;SDS011;27057;51.438;-0.010;2023-05-10T01:52:05;20.45;;;7.63;;
41309;SDS011;27057;51.438;-0.010;2023-05-10T01:54:38;13.52;;;6.80;;
41309;SDS011;27057;51.438;-0.010;2023-05-10T01:57:08;12.52;;;6.60;;
41309;SDS011;27057;51.438;-0.010;2023-05-10T01:59:39;16.02;;;7.25;;
41309;SDS011;27057;51.438;-0.010;2023-05-10T02:02:11;17.27;;;7.22;;
41309;SDS011;27057;51.438;-0.010;2023-05-10T02:04:40;13.10;;;7.05;;
41309;SDS011;27057;51.438;-0.010;2023-05-10T02:07:10;23.67;;;7.72;;
41309;SDS011;27057;51.438;-0.010;2023-05-10T02:09:39;23.48;;;6.72;;
41309;SDS011;27057;51.438;-0.010;2023-05-10T02:12:08;15.95;;;7.43;;
41309;SDS011;27057;51.438;-0.010;2023-05-10T02:14:37;16.50;;;7.22;;
41309;SDS011;27057;51.438;-0.010;2023-05-10T02:17:08;18.08;;;7.68;;
41309;SDS011;27057;51.438;-0.010;2023-05-10T02:19:38;25.70;;;7.70;;
41309;SDS011;27057;51.438;-0.010;2023-05-10T02:22:07;15.05;;;7.47;;
41309;SDS011;27057;51.438;-0.010;2023-05-10T02:24:36;23.42;;;7.00;;
41309;SDS011;27057;51.438;-0.010;2023-05-10T02:27:05;14.38;;;7.00;;
41309;SDS011;27057;51.438;-0.010;2023-05-10T02:29:34;23.55;;;6.55;;
41309;SDS011;27057;51.438;-0.010;2023-05-10T02:32:03;16.00;;;7.22;;
41309;SDS011;27057;51.438;-0.010;2023-05-10T02:34:32;27.90;;;9.05;;
41309;SDS011;27057;51.438;-0.010;2023-05-10T02:37:00;16.52;;;7.03;;
41309;SDS011;27057;51.438;-0.010;2023-05-10T02:39:29;15.52;;;6.97;;
41309;SDS011;27057;51.438;-0.010;2023-05-10T02:41:58;13.57;;;6.50;;
41309;SDS011;27057;51.438;-0.010;2023-05-10T02:44:29;15.35;;;6.72;;
41309;SDS011;27057;51.438;-0.010;2023-05-10T02:46:58;19.10;;;6.90;;
41309;SDS011;27057;51.438;-0.010;2023-05-10T02:49:27;21.05;;;6.85;;
41309;SDS011;27057;51.438;-0.010;2023-05-10T02:51:56;14.35;;;5.97;;
41309;SDS011;27057;51.438;-0.010;2023-05-10T02:54:30;12.65;;;6.35;;
41309;SDS011;27057;51.438;-0.010;2023-05-10T02:57:02;14.43;;;6.78;;
41309;SDS011;27057;51.438;-0.010;2023-05-10T02:59:31;14.00;;;6.45;;
41309;SDS011;27057;51.438;-0.010;2023-05-10T03:01:59;15.65;;;7.25;;
41309;SDS011;27057;51.438;-0.010;2023-05-10T03:04:27;20.95;;;7.25;;
41309;SDS011;27057;51.438;-0.010;2023-05-10T03:06:56;17.67;;;6.88;;
41309;SDS011;27057;51.438;-0.010;2023-05-10T03:09:24;18.52;;;6.75;;
41309;SDS011;27057;51.438;-0.010;2023-05-10T03:12:07;22.05;;;7.10;;
41309;SDS011;27057;51.438;-0.010;2023-05-10T03:14:42;16.58;;;6.65;;
41309;SDS011;27057;51.438;-0.010;2023-05-10T03:20:06;17.42;;;7.32;;
41309;SDS011;27057;51.438;-0.010;2023-05-10T03:22:38;17.17;;;6.32;;
41309;SDS011;27057;51.438;-0.010;2023-05-10T03:25:10;14.88;;;7.18;;
41309;SDS011;27057;51.438;-0.010;2023-05-10T03:27:40;17.05;;;6.90;;
41309;SDS011;27057;51.438;-0.010;2023-05-10T03:30:10;12.38;;;6.95;;
41309;SDS011;27057;51.438;-0.010;2023-05-10T03:32:39;18.10;;;7.43;;
41309;SDS011;27057;51.438;-0.010;2023-05-10T03:35:11;18.27;;;8.57;;
41309;SDS011;27057;51.438;-0.010;2023-05-10T03:37:41;17.90;;;7.75;;
41309;SDS011;27057;51.438;-0.010;2023-05-10T03:40:09;13.85;;;6.60;;
41309;SDS011;27057;51.438;-0.010;2023-05-10T03:42:40;27.92;;;8.57;;
41309;SDS011;27057;51.438;-0.010;2023-05-10T03:45:07;14.98;;;7.40;;
41309;SDS011;27057;51.438;-0.010;2023-05-10T03:47:35;18.98;;;8.80;;
41309;SDS011;27057;51.438;-0.010;2023-05-10T03:50:04;23.77;;;9.45;;
41309;SDS011;27057;51.438;-0.010;2023-05-10T03:52:32;24.50;;;9.88;;
41309;SDS011;27057;51.438;-0.010;2023-05-10T03:54:59;22.02;;;8.55;;
41309;SDS011;27057;51.438;-0.010;2023-05-10T03:57:29;20.95;;;9.75;;
41309;SDS011;27057;51.438;-0.010;2023-05-10T03:59:57;27.08;;;9.38;;
41309;SDS011;27057;51.438;-0.010;2023-05-10T04:02:24;26.70;;;8.63;;
41309;SDS011;27057;51.438;-0.010;2023-05-10T04:04:53;19.88;;;8.80;;
41309;SDS011;27057;51.438;-0.010;2023-05-10T04:07:20;21.55;;;9.80;;
41309;SDS011;27057;51.438;-0.010;2023-05-10T04:09:48;16.52;;;8.07;;
41309;SDS011;27057;51.438;-0.010;2023-05-10T04:12:15;15.50;;;8.45;;
41309;SDS011;27057;51.438;-0.010;2023-05-10T04:14:43;24.58;;;8.57;;
41309;SDS011;27057;51.438;-0.010;2023-05-10T04:17:10;27.45;;;9.55;;
41309;SDS011;27057;51.438;-0.010;2023-05-10T04:19:37;29.23;;;8.25;;
41309;SDS011;27057;51.438;-0.010;2023-05-10T04:22:05;30.40;;;8.82;;
41309;SDS011;27057;51.438;-0.010;2023-05-10T04:24:33;27.85;;;9.50;;
41309;SDS011;27057;51.438;-0.010;2023-05-10T04:27:00;18.88;;;8.52;;
41309;SDS011;27057;51.438;-0.010;2023-05-10T04:29:27;21.08;;;7.57;;
41309;SDS011;27057;51.438;-0.010;2023-05-10T04:31:55;35.83;;;8.68;;
41309;SDS011;27057;51.438;-0.010;2023-05-10T04:34:23;24.70;;;10.18;;
41309;SDS011;27057;51.438;-0.010;2023-05-10T04:36:50;27.17;;;9.90;;
41309;SDS011;27057;51.438;-0.010;2023-05-10T04:39:18;26.33;;;8.93;;
41309;SDS011;27057;51.438;-0.010;2023-05-10T04:41:46;24.90;;;8.68;;
41309;SDS011;27057;51.438;-0.010;2023-05-10T04:44:13;20.17;;;9.30;;
41309;SDS011;27057;51.438;-0.010;2023-05-10T04:46:42;22.70;;;9.50;;
41309;SDS011;27057;51.438;-0.010;2023-05-10T04:49:10;18.60;;;10.00;;
41309;SDS011;27057;51.438;-0.010;2023-05-10T04:51:38;24.73;;;8.95;;
41309;SDS011;27057;51.438;-0.010;2023-05-10T04:54:06;18.45;;;9.02;;
41309;SDS011;27057;51.438;-0.010;2023-05-10T04:56:34;33.85;;;10.77;;
41309;SDS011;27057;51.438;-0.010;2023-05-10T04:59:02;24.33;;;9.23;;
41309;SDS011;27057;51.438;-0.010;2023-05-10T05:01:29;27.50;;;10.70;;
41309;SDS011;27057;51.438;-0.010;2023-05-10T05:03:57;29.60;;;10.80;;
41309;SDS011;27057;51.438;-0.010;2023-05-10T05:06:25;26.13;;;11.60;;
41309;SDS011;27057;51.438;-0.010;2023-05-10T05:08:54;24.45;;;10.75;;
41309;SDS011;27057;51.438;-0.010;2023-05-10T05:11:21;31.38;;;12.57;;
41309;SDS011;27057;51.438;-0.010;2023-05-10T05:13:49;29.40;;;11.65;;
41309;SDS011;27057;51.438;-0.010;2023-05-10T05:16:16;38.20;;;12.18;;
41309;SDS011;27057;51.438;-0.010;2023-05-10T05:18:44;33.63;;;11.50;;
41309;SDS011;27057;51.438;-0.010;2023-05-10T05:21:18;37.10;;;12.43;;
41309;SDS011;27057;51.438;-0.010;2023-05-10T05:23:47;31.17;;;11.75;;
41309;SDS011;27057;51.438;-0.010;2023-05-10T05:26:14;37.15;;;14.23;;
41309;SDS011;27057;51.438;-0.010;2023-05-10T05:28:43;24.13;;;11.70;;
41309;SDS011;27057;51.438;-0.010;2023-05-10T05:31:11;31.10;;;11.57;;
41309;SDS011;27057;51.438;-0.010;2023-05-10T05:33:39;26.95;;;12.80;;
41309;SDS011;27057;51.438;-0.010;2023-05-10T05:36:07;33.65;;;13.32;;
41309;SDS011;27057;51.438;-0.010;2023-05-10T05:38:35;32.67;;;13.00;;
41309;SDS011;27057;51.438;-0.010;2023-05-10T05:41:05;25.00;;;12.02;;
41309;SDS011;27057;51.438;-0.010;2023-05-10T05:43:34;33.33;;;12.25;;
41309;SDS011;27057;51.438;-0.010;2023-05-10T05:46:04;34.63;;;10.25;;
41309;SDS011;27057;51.438;-0.010;2023-05-10T05:48:32;40.08;;;14.55;;
41309;SDS011;27057;51.438;-0.010;2023-05-10T05:51:00;34.72;;;13.75;;
41309;SDS011;27057;51.438;-0.010;2023-05-10T05:53:27;33.92;;;13.35;;
41309;SDS011;27057;51.438;-0.010;2023-05-10T05:55:56;36.55;;;13.65;;
41309;SDS011;27057;51.438;-0.010;2023-05-10T05:58:25;33.55;;;13.20;;
41309;SDS011;27057;51.438;-0.010;2023-05-10T06:00:53;24.60;;;12.02;;
41309;SDS011;27057;51.438;-0.010;2023-05-10T06:03:20;33.95;;;13.90;;
41309;SDS011;27057;51.438;-0.010;2023-05-10T06:05:48;39.42;;;12.05;;
41309;SDS011;27057;51.438;-0.010;2023-05-10T06:08:16;27.45;;;10.35;;
41309;SDS011;27057;51.438;-0.010;2023-05-10T06:10:43;28.88;;;10.77;;
41309;SDS011;27057;51.438;-0.010;2023-05-10T06:13:12;26.48;;;10.63;;
41309;SDS011;27057;51.438;-0.010;2023-05-10T06:15:39;18.73;;;9.40;;
41309;SDS011;27057;51.438;-0.010;2023-05-10T06:18:06;25.60;;;10.65;;
41309;SDS011;27057;51.438;-0.010;2023-05-10T06:20:34;30.48;;;13.07;;
41309;SDS011;27057;51.438;-0.010;2023-05-10T06:23:01;31.45;;;12.75;;
41309;SDS011;27057;51.438;-0.010;2023-05-10T06:25:29;34.15;;;12.60;;
41309;SDS011;27057;51.438;-0.010;2023-05-10T06:27:57;28.58;;;12.13;;
41309;SDS011;27057;51.438;-0.010;2023-05-10T06:30:25;41.47;;;13.48;;
41309;SDS011;27057;51.438;-0.010;2023-05-10T06:32:55;37.78;;;10.60;;
41309;SDS011;27057;51.438;-0.010;2023-05-10T06:35:25;22.92;;;9.70;;
41309;SDS011;27057;51.438;-0.010;2023-05-10T06:37:53;32.58;;;11.40;;
41309;SDS011;27057;51.438;-0.010;2023-05-10T06:40:20;24.27;;;10.30;;
41309;SDS011;27057;51.438;-0.010;2023-05-10T06:42:48;31.45;;;9.90;;
41309;SDS011;27057;51.438;-0.010;2023-05-10T06:45:17;31.88;;;11.32;;
41309;SDS011;27057;51.438;-0.010;2023-05-10T06:47:44;29.17;;;12.90;;
41309;SDS011;27057;51.438;-0.010;2023-05-10T06:50:12;28.38;;;11.80;;
41309;SDS011;27057;51.438;-0.010;2023-05-10T06:52:40;33.90;;;11.80;;
41309;SDS011;27057;51.438;-0.010;2023-05-10T06:55:10;31.90;;;13.35;;
41309;SDS011;27057;51.438;-0.010;2023-05-10T06:57:39;37.58;;;13.35;;
41309;SDS011;27057;51.438;-0.010;2023-05-10T07:00:07;32.20;;;9.18;;
41309;SDS011;27057;51.438;-0.010;2023-05-10T07:02:36;55.88;;;16.00;;
41309;SDS011;27057;51.438;-0.010;2023-05-10T07:05:04;30.10;;;13.48;;
41309;SDS011;27057;51.438;-0.010;2023-05-10T07:07:31;35.95;;;13.90;;
41309;SDS011;27057;51.438;-0.010;2023-05-10T07:09:59;37.20;;;14.48;;
41309;SDS011;27057;51.438;-0.010;2023-05-10T07:12:27;38.22;;;13.55;;
41309;SDS011;27057;51.438;-0.010;2023-05-10T07:14:54;34.95;;;15.30;;
41309;SDS011;27057;51.438;-0.010;2023-05-10T07:17:22;31.23;;;11.63;;
41309;SDS011;27057;51.438;-0.010;2023-05-10T07:19:51;29.45;;;11.05;;
41309;SDS011;27057;51.438;-0.010;2023-05-10T07:22:20;25.60;;;9.15;;
41309;SDS011;27057;51.438;-0.010;2023-05-10T07:24:48;23.90;;;10.80;;
41309;SDS011;27057;51.438;-0.010;2023-05-10T07:27:15;20.83;;;8.75;;
41309;SDS011;27057;51.438;-0.010;2023-05-10T07:29:43;19.83;;;8.27;;
41309;SDS011;27057;51.438;-0.010;2023-05-10T07:32:10;27.25;;;7.72;;
41309;SDS011;27057;51.438;-0.010;2023-05-10T07:34:38;30.55;;;7.90;;
41309;SDS011;27057;51.438;-0.010;2023-05-10T07:37:05;22.73;;;8.00;;
41309;SDS011;27057;51.438;-0.010;2023-05-10T07:39:36;28.90;;;9.30;;
41309;SDS011;27057;51.438;-0.010;2023-05-10T07:42:04;23.75;;;7.75;;
41309;SDS011;27057;51.438;-0.010;2023-05-10T07:44:32;20.92;;;6.63;;
41309;SDS011;27057;51.438;-0.010;2023-05-10T07:47:02;19.17;;;5.10;;
41309;SDS011;27057;51.438;-0.010;2023-05-10T07:49:30;14.73;;;4.50;;
41309;SDS011;27057;51.438;-0.010;2023-05-10T07:51:57;19.02;;;5.55;;
41309;SDS011;27057;51.438;-0.010;2023-05-10T07:54:25;22.55;;;5.43;;
41309;SDS011;27057;51.438;-0.010;2023-05-10T07:56:52;14.45;;;4.97;;
41309;SDS011;27057;51.438;-0.010;2023-05-10T07:59:20;23.05;;;5.35;;
41309;SDS011;27057;51.438;-0.010;2023-05-10T08:01:47;25.33;;;5.85;;
41309;SDS011;27057;51.438;-0.010;2023-05-10T08:04:16;19.60;;;4.60;;
41309;SDS011;27057;51.438;-0.010;2023-05-10T08:06:43;19.38;;;3.83;;
41309;SDS011;27057;51.438;-0.010;2023-05-10T08:09:12;21.55;;;6.90;;
41309;SDS011;27057;51.438;-0.010;2023-05-10T08:11:40;22.63;;;5.75;;
41309;SDS011;27057;51.438;-0.010;2023-05-10T08:14:07;24.50;;;5.63;;
41309;SDS011;27057;51.438;-0.010;2023-05-10T08:16:35;24.55;;;5.32;;
41309;SDS011;27057;51.438;-0.010;2023-05-10T08:19:03;14.73;;;5.45;;
41309;SDS011;27057;51.438;-0.010;2023-05-10T08:21:31;24.25;;;5.03;;
41309;SDS011;27057;51.438;-0.010;2023-05-10T08:23:58;24.55;;;6.60;;
41309;SDS011;27057;51.438;-0.010;2023-05-10T08:26:26;22.65;;;6.25;;
41309;SDS011;27057;51.438;-0.010;2023-05-10T08:28:55;22.10;;;5.57;;
41309;SDS011;27057;51.438;-0.010;2023-05-10T08:31:22;36.45;;;10.43;;
41309;SDS011;27057;51.438;-0.010;2023-05-10T08:33:49;25.08;;;7.25;;
41309;SDS011;27057;51.438;-0.010;2023-05-10T08:36:20;14.50;;;5.85;;
41309;SDS011;27057;51.438;-0.010;2023-05-10T08:38:52;27.83;;;7.18;;
41309;SDS011;27057;51.438;-0.010;2023-05-10T08:41:21;16.70;;;6.20;;
41309;SDS011;27057;51.438;-0.010;2023-05-10T08:43:53;17.77;;;5.05;;
41309;SDS011;27057;51.438;-0.010;2023-05-10T08:46:22;15.00;;;5.50;;
41309;SDS011;27057;51.438;-0.010;2023-05-10T08:48:50;14.70;;;4.93;;
41309;SDS011;27057;51.438;-0.010;2023-05-10T08:51:19;26.30;;;5.43;;
41309;SDS011;27057;51.438;-0.010;2023-05-10T08:53:52;22.17;;;5.20;;
41309;SDS011;27057;51.438;-0.010;2023-05-10T08:56:20;14.73;;;5.10;;
41309;SDS011;27057;51.438;-0.010;2023-05-10T08:58:48;16.08;;;5.30;;
41309;SDS011;27057;51.438;-0.010;2023-05-10T09:01:16;15.02;;;5.53;;
41309;SDS011;27057;51.438;-0.010;2023-05-10T09:03:46;28.88;;;6.40;;
41309;SDS011;27057;51.438;-0.010;2023-05-10T09:06:14;12.90;;;4.22;;
41309;SDS011;27057;51.438;-0.010;2023-05-10T09:08:43;26.55;;;6.25;;
41309;SDS011;27057;51.438;-0.010;2023-05-10T09:11:12;15.77;;;6.18;;
41309;SDS011;27057;51.438;-0.010;2023-05-10T09:13:40;23.92;;;7.35;;
41309;SDS011;27057;51.438;-0.010;2023-05-10T09:16:08;17.35;;;5.25;;
41309;SDS011;27057;51.438;-0.010;2023-05-10T09:18:48;16.05;;;5.47;;
41309;SDS011;27057;51.438;-0.010;2023-05-10T09:21:16;19.92;;;6.38;;
41309;SDS011;27057;51.438;-0.010;2023-05-10T09:23:47;15.23;;;5.40;;
41309;SDS011;27057;51.438;-0.010;2023-05-10T09:26:16;16.63;;;5.95;;
41309;SDS011;27057;51.438;-0.010;2023-05-10T09:28:53;17.40;;;6.40;;
41309;SDS011;27057;51.438;-0.010;2023-05-10T09:31:24;27.67;;;9.60;;
41309;SDS011;27057;51.438;-0.010;2023-05-10T09:34:15;14.75;;;6.15;;
41309;SDS011;27057;51.438;-0.010;2023-05-10T09:36:54;14.43;;;4.85;;
41309;SDS011;27057;51.438;-0.010;2023-05-10T09:42:01;14.55;;;4.68;;
41309;SDS011;27057;51.438;-0.010;2023-05-10T09:44:33;17.73;;;5.65;;
41309;SDS011;27057;51.438;-0.010;2023-05-10T09:47:01;22.50;;;5.72;;
41309;SDS011;27057;51.438;-0.010;2023-05-10T09:49:31;16.90;;;6.40;;
41309;SDS011;27057;51.438;-0.010;2023-05-10T09:52:00;12.00;;;4.45;;
41309;SDS011;27057;51.438;-0.010;2023-05-10T09:54:28;21.52;;;5.13;;
41309;SDS011;27057;51.438;-0.010;2023-05-10T09:56:56;10.73;;;4.53;;
41309;SDS011;27057;51.438;-0.010;2023-05-10T09:59:27;11.85;;;4.43;;
41309;SDS011;27057;51.438;-0.010;2023-05-10T10:01:55;13.40;;;4.78;;
41309;SDS011;27057;51.438;-0.010;2023-05-10T10:04:26;13.15;;;4.78;;
41309;SDS011;27057;51.438;-0.010;2023-05-10T10:07:01;18.30;;;5.28;;
41309;SDS011;27057;51.438;-0.010;2023-05-10T10:09:30;14.80;;;5.30;;
41309;SDS011;27057;51.438;-0.010;2023-05-10T10:12:01;17.83;;;5.82;;
41309;SDS011;27057;51.438;-0.010;2023-05-10T10:14:30;14.35;;;4.97;;
41309;SDS011;27057;51.438;-0.010;2023-05-10T10:16:59;24.42;;;5.97;;
41309;SDS011;27057;51.438;-0.010;2023-05-10T10:19:30;15.30;;;5.35;;
41309;SDS011;27057;51.438;-0.010;2023-05-10T10:22:00;13.90;;;6.18;;
41309;SDS011;27057;51.438;-0.010;2023-05-10T10:24:27;13.98;;;5.38;;
41309;SDS011;27057;51.438;-0.010;2023-05-10T10:26:55;19.05;;;4.78;;
41309;SDS011;27057;51.438;-0.010;2023-05-10T10:29:36;22.15;;;5.47;;
41309;SDS011;27057;51.438;-0.010;2023-05-10T10:32:59;17.05;;;5.10;;
41309;SDS011;27057;51.438;-0.010;2023-05-10T10:35:14;13.60;;;4.72;;
41309;SDS011;27057;51.438;-0.010;2023-05-10T10:37:46;19.50;;;4.57;;
41309;SDS011;27057;51.438;-0.010;2023-05-10T10:40:26;14.40;;;4.00;;
41309;SDS011;27057;51.438;-0.010;2023-05-10T10:46:12;11.90;;;4.38;;
41309;SDS011;27057;51.438;-0.010;2023-05-10T10:48:41;10.80;;;4.07;;
41309;SDS011;27057;51.438;-0.010;2023-05-10T10:51:18;8.52;;;3.67;;
41309;SDS011;27057;51.438;-0.010;2023-05-10T10:53:45;11.82;;;4.90;;
41309;SDS011;27057;51.438;-0.010;2023-05-10T10:56:15;17.27;;;4.95;;
41309;SDS011;27057;51.438;-0.010;2023-05-10T10:58:48;17.50;;;6.53;;
41309;SDS011;27057;51.438;-0.010;2023-05-10T11:01:20;16.42;;;5.10;;
41309;SDS011;27057;51.438;-0.010;2023-05-10T11:03:56;17.92;;;5.15;;
41309;SDS011;27057;51.438;-0.010;2023-05-10T11:06:45;7.93;;;2.85;;
41309;SDS011;27057;51.438;-0.010;2023-05-10T11:09:12;16.05;;;5.00;;
41309;SDS011;27057;51.438;-0.010;2023-05-10T11:11:51;10.00;;;3.70;;
41309;SDS011;27057;51.438;-0.010;2023-05-10T11:14:22;16.02;;;4.97;;
41309;SDS011;27057;51.438;-0.010;2023-05-10T11:16:55;13.38;;;3.67;;
41309;SDS011;27057;51.438;-0.010;2023-05-10T11:19:23;12.63;;;4.68;;
41309;SDS011;27057;51.438;-0.010;2023-05-10T11:24:31;11.95;;;4.75;;
41309;SDS011;27057;51.438;-0.010;2023-05-10T11:27:00;11.15;;;2.90;;
41309;SDS011;27057;51.438;-0.010;2023-05-10T11:29:27;14.90;;;4.03;;
41309;SDS011;27057;51.438;-0.010;2023-05-10T11:31:56;15.57;;;3.65;;
41309;SDS011;27057;51.438;-0.010;2023-05-10T11:34:26;10.88;;;4.13;;
41309;SDS011;27057;51.438;-0.010;2023-05-10T11:36:57;23.88;;;4.22;;
41309;SDS011;27057;51.438;-0.010;2023-05-10T11:39:25;16.15;;;3.88;;
41309;SDS011;27057;51.438;-0.010;2023-05-10T11:41:54;12.57;;;3.58;;
41309;SDS011;27057;51.438;-0.010;2023-05-10T11:44:22;14.00;;;2.42;;
41309;SDS011;27057;51.438;-0.010;2023-05-10T11:46:50;9.32;;;2.80;;
41309;SDS011;27057;51.438;-0.010;2023-05-10T11:49:18;10.30;;;3.25;;
41309;SDS011;27057;51.438;-0.010;2023-05-10T11:51:48;7.65;;;2.28;;
41309;SDS011;27057;51.438;-0.010;2023-05-10T11:54:15;12.98;;;2.58;;
41309;SDS011;27057;51.438;-0.010;2023-05-10T11:56:43;11.40;;;2.35;;
41309;SDS011;27057;51.438;-0.010;2023-05-10T11:59:13;14.95;;;2.60;;
41309;SDS011;27057;51.438;-0.010;2023-05-10T12:01:41;7.60;;;2.47;;
41309;SDS011;27057;51.438;-0.010;2023-05-10T12:04:09;11.63;;;2.90;;
41309;SDS011;27057;51.438;-0.010;2023-05-10T12:06:39;6.60;;;2.22;;
41309;SDS011;27057;51.438;-0.010;2023-05-10T12:09:07;9.85;;;2.55;;
41309;SDS011;27057;51.438;-0.010;2023-05-10T12:11:38;16.98;;;2.67;;
41309;SDS011;27057;51.438;-0.010;2023-05-10T12:14:10;14.18;;;3.53;;
41309;SDS011;27057;51.438;-0.010;2023-05-10T12:16:39;9.48;;;2.13;;
41309;SDS011;27057;51.438;-0.010;2023-05-10T12:19:07;8.85;;;2.80;;
41309;SDS011;27057;51.438;-0.010;2023-05-10T12:21:35;18.85;;;2.90;;
41309;SDS011;27057;51.438;-0.010;2023-05-10T12:24:03;9.52;;;2.22;;
41309;SDS011;27057;51.438;-0.010;2023-05-10T12:26:32;7.57;;;2.30;;
41309;SDS011;27057;51.438;-0.010;2023-05-10T12:29:17;4.00;;;1.73;;
41309;SDS011;27057;51.438;-0.010;2023-05-10T12:31:50;8.88;;;2.08;;
41309;SDS011;27057;51.438;-0.010;2023-05-10T12:34:26;5.10;;;2.13;;
41309;SDS011;27057;51.438;-0.010;2023-05-10T12:36:56;7.65;;;2.28;;
41309;SDS011;27057;51.438;-0.010;2023-05-10T12:39:25;7.20;;;2.40;;
41309;SDS011;27057;51.438;-0.010;2023-05-10T12:41:52;9.52;;;2.58;;
41309;SDS011;27057;51.438;-0.010;2023-05-10T12:44:23;9.63;;;2.50;;
41309;SDS011;27057;51.438;-0.010;2023-05-10T12:46:50;9.45;;;2.72;;
41309;SDS011;27057;51.438;-0.010;2023-05-10T12:49:18;10.70;;;2.28;;
41309;SDS011;27057;51.438;-0.010;2023-05-10T12:51:46;9.73;;;2.22;;
41309;SDS011;27057;51.438;-0.010;2023-05-10T12:54:14;16.02;;;2.10;;
41309;SDS011;27057;51.438;-0.010;2023-05-10T12:56:42;7.63;;;2.25;;
41309;SDS011;27057;51.438;-0.010;2023-05-10T12:59:09;10.15;;;2.63;;
41309;SDS011;27057;51.438;-0.010;2023-05-10T13:01:37;12.90;;;3.33;;
41309;SDS011;27057;51.438;-0.010;2023-05-10T13:04:04;13.43;;;2.83;;
41309;SDS011;27057;51.438;-0.010;2023-05-10T13:06:32;6.55;;;2.92;;
41309;SDS011;27057;51.438;-0.010;2023-05-10T13:08:59;5.82;;;2.05;;
41309;SDS011;27057;51.438;-0.010;2023-05-10T13:11:26;7.68;;;2.28;;
41309;SDS011;27057;51.438;-0.010;2023-05-10T13:13:54;10.60;;;2.72;;
41309;SDS011;27057;51.438;-0.010;2023-05-10T13:16:22;15.07;;;2.95;;
41309;SDS011;27057;51.438;-0.010;2023-05-10T13:18:51;13.13;;;2.78;;
41309;SDS011;27057;51.438;-0.010;2023-05-10T13:21:18;13.48;;;3.08;;
41309;SDS011;27057;51.438;-0.010;2023-05-10T13:23:46;9.98;;;2.92;;
41309;SDS011;27057;51.438;-0.010;2023-05-10T13:26:13;15.93;;;4.18;;
41309;SDS011;27057;51.438;-0.010;2023-05-10T13:28:41;15.07;;;3.03;;
41309;SDS011;27057;51.438;-0.010;2023-05-10T13:31:08;15.38;;;4.18;;
41309;SDS011;27057;51.438;-0.010;2023-05-10T13:33:36;12.05;;;3.60;;
41309;SDS011;27057;51.438;-0.010;2023-05-10T13:36:03;9.90;;;2.83;;
41309;SDS011;27057;51.438;-0.010;2023-05-10T13:38:31;5.63;;;2.10;;
41309;SDS011;27057;51.438;-0.010;2023-05-10T13:40:59;10.40;;;2.42;;
41309;SDS011;27057;51.438;-0.010;2023-05-10T13:43:27;7.93;;;2.47;;
41309;SDS011;27057;51.438;-0.010;2023-05-10T13:45:55;6.82;;;2.55;;
41309;SDS011;27057;51.438;-0.010;2023-05-10T13:48:23;6.10;;;2.50;;
41309;SDS011;27057;51.438;-0.010;2023-05-10T13:50:50;9.10;;;2.55;;
41309;SDS011;27057;51.438;-0.010;2023-05-10T13:53:17;13.00;;;3.05;;
41309;SDS011;27057;51.438;-0.010;2023-05-10T13:55:45;12.98;;;3.45;;
41309;SDS011;27057;51.438;-0.010;2023-05-10T13:58:12;7.63;;;2.75;;
41309;SDS011;27057;51.438;-0.010;2023-05-10T14:00:40;13.38;;;2.63;;
41309;SDS011;27057;51.438;-0.010;2023-05-10T14:03:07;8.40;;;2.22;;
41309;SDS011;27057;51.438;-0.010;2023-05-10T14:05:38;11.27;;;2.75;;
41309;SDS011;27057;51.438;-0.010;2023-05-10T14:08:05;14.13;;;2.50;;
41309;SDS011;27057;51.438;-0.010;2023-05-10T14:10:34;5.35;;;1.90;;
41309;SDS011;27057;51.438;-0.010;2023-05-10T14:13:01;6.22;;;1.60;;
41309;SDS011;27057;51.438;-0.010;2023-05-10T14:15:29;2.65;;;1.38;;
41309;SDS011;27057;51.438;-0.010;2023-05-10T14:17:58;7.97;;;1.80;;
41309;SDS011;27057;51.438;-0.010;2023-05-10T14:20:26;10.55;;;2.20;;
41309;SDS011;27057;51.438;-0.010;2023-05-10T14:22:53;6.40;;;2.78;;
41309;SDS011;27057;51.438;-0.010;2023-05-10T14:25:20;11.93;;;3.15;;
41309;SDS011;27057;51.438;-0.010;2023-05-10T14:27:48;12.10;;;3.25;;
41309;SDS011;27057;51.438;-0.010;2023-05-10T14:30:15;17.02;;;4.10;;
41309;SDS011;27057;51.438;-0.010;2023-05-10T14:32:43;11.20;;;3.40;;
41309;SDS011;27057;51.438;-0.010;2023-05-10T14:35:10;10.00;;;3.10;;
41309;SDS011;27057;51.438;-0.010;2023-05-10T14:37:42;12.38;;;3.50;;
41309;SDS011;27057;51.438;-0.010;2023-05-10T14:40:10;8.50;;;2.63;;
41309;SDS011;27057;51.438;-0.010;2023-05-10T14:42:39;6.80;;;2.33;;
41309;SDS011;27057;51.438;-0.010;2023-05-10T14:45:06;7.38;;;2.13;;
41309;SDS011;27057;51.438;-0.010;2023-05-10T14:47:37;13.55;;;2.88;;
41309;SDS011;27057;51.438;-0.010;2023-05-10T14:50:04;12.25;;;2.72;;
41309;SDS011;27057;51.438;-0.010;2023-05-10T14:52:33;7.50;;;2.47;;
41309;SDS011;27057;51.438;-0.010;2023-05-10T14:55:01;7.30;;;1.98;;
41309;SDS011;27057;51.438;-0.010;2023-05-10T14:57:29;9.98;;;2.20;;
41309;SDS011;27057;51.438;-0.010;2023-05-10T14:59:57;9.88;;;2.88;;